Terminal Aerodrome Forecast
Issued by NWS Albany, NY

Home | Current Version | Previous Version | Text Only | Print | Product List | Glossary On
Versions: 1 2 3 4 5 6 7 8 9 10 11 12 13 14 15 16 17 18 19 20 21
569
FTUS41 KALY 241130
TAFGFL
TAF
KGFL 241130Z 2412/2512 VRB03KT P6SM VCSH SCT060 OVC120
     FM242100 33005KT P6SM VCSH SCT030 OVC060
     FM250000 24005KT P6SM BKN060
     FM250200 VRB03KT P6SM SCT080=

USA.gov is the U.S. government's official web portal to all federal, state and local government web resources and services.